createdAt,value
2019-01-18T00:00:49.340Z,3.23
2019-01-18T00:03:18.676Z,3.27
2019-01-18T00:05:48.338Z,3.24
2019-01-18T00:08:17.656Z,3.10
2019-01-18T00:10:47.002Z,3.18
2019-01-18T00:13:16.324Z,3.16
2019-01-18T00:15:45.653Z,3.21
2019-01-18T00:18:15.264Z,3.15
2019-01-18T00:20:44.837Z,3.09
2019-01-18T00:23:14.476Z,3.15
2019-01-18T00:25:44.064Z,3.11
2019-01-18T00:28:13.627Z,2.99
2019-01-18T00:30:42.950Z,3.06
2019-01-18T00:33:12.536Z,3.06
2019-01-18T00:35:41.876Z,3.04
2019-01-18T00:38:11.467Z,3.07
2019-01-18T00:40:40.797Z,3.17
2019-01-18T00:43:10.170Z,3.16
2019-01-18T00:45:39.828Z,3.10
2019-01-18T00:48:09.186Z,3.02
2019-01-18T00:50:38.857Z,3.11
2019-01-18T00:53:08.427Z,3.08
2019-01-18T00:55:38.028Z,3.16
2019-01-18T00:58:07.627Z,3.17
2019-01-18T01:00:36.951Z,3.20
2019-01-18T01:03:06.315Z,3.18
2019-01-18T01:05:35.656Z,3.24
2019-01-18T01:08:05.159Z,3.17
2019-01-18T01:10:34.721Z,3.26
2019-01-18T01:13:04.378Z,2.84
2019-01-18T01:15:33.680Z,3.33
2019-01-18T01:18:03.278Z,3.28
2019-01-18T01:20:32.864Z,3.20
2019-01-18T01:23:02.451Z,3.24
2019-01-18T01:25:32.053Z,3.19
2019-01-18T01:28:01.408Z,3.22
2019-01-18T01:30:31.030Z,3.25
2019-01-18T01:33:00.360Z,3.06
2019-01-18T01:35:29.948Z,3.15
2019-01-18T01:37:59.253Z,3.20
2019-01-18T01:40:28.931Z,3.24
2019-01-18T01:42:58.229Z,3.21
2019-01-18T01:45:27.848Z,3.17
2019-01-18T01:47:57.232Z,3.20
2019-01-18T01:50:27.061Z,3.21
2019-01-18T01:52:56.456Z,3.07
2019-01-18T01:55:25.818Z,3.13
2019-01-18T01:57:55.435Z,3.16
2019-01-18T02:00:27.002Z,3.12
2019-01-18T02:02:56.362Z,3.05
2019-01-18T02:05:25.684Z,2.97
2019-01-18T02:07:55.029Z,3.00
2019-01-18T02:10:24.630Z,2.93
2019-01-18T02:12:53.967Z,2.90
2019-01-18T02:15:26.191Z,2.87
2019-01-18T02:17:55.530Z,2.85
2019-01-18T02:20:25.471Z,2.77
2019-01-18T02:22:54.788Z,2.79
2019-01-18T02:25:24.449Z,2.79
2019-01-18T02:27:53.748Z,2.71
2019-01-18T02:30:28.105Z,2.78
2019-01-18T02:32:57.792Z,2.75
2019-01-18T02:35:27.378Z,2.78
2019-01-18T02:37:56.954Z,2.78
2019-01-18T02:40:26.549Z,2.84
2019-01-18T02:42:55.853Z,2.81
2019-01-18T02:45:25.207Z,2.81
2019-01-18T02:47:54.537Z,2.87
2019-01-18T02:50:23.848Z,2.73
2019-01-18T02:52:53.429Z,2.73
2019-01-18T02:55:28.854Z,2.77
2019-01-18T02:57:53.776Z,2.75
2019-01-18T03:00:24.053Z,2.74
2019-01-18T03:02:53.932Z,2.72
2019-01-18T03:05:25.967Z,2.75
2019-01-18T03:07:55.267Z,2.72
2019-01-18T03:10:29.686Z,2.75
2019-01-18T03:12:59.297Z,2.68
2019-01-18T03:15:28.601Z,2.77
2019-01-18T03:17:57.923Z,2.73
2019-01-18T03:20:27.270Z,2.70
2019-01-18T03:22:56.583Z,2.68
2019-01-18T03:25:27.229Z,2.58
2019-01-18T03:27:56.541Z,2.63
2019-01-18T03:30:25.883Z,2.57
2019-01-18T03:32:55.185Z,2.22
2019-01-18T03:35:24.585Z,2.54
2019-01-18T03:37:53.891Z,2.57
2019-01-18T03:40:23.460Z,2.47
2019-01-18T03:42:52.879Z,2.48
2019-01-18T03:45:22.194Z,2.46
2019-01-18T03:47:51.576Z,2.51
2019-01-18T03:50:25.840Z,2.38
2019-01-18T03:52:55.137Z,2.35
2019-01-18T03:55:24.460Z,2.35
2019-01-18T03:57:53.782Z,2.31
2019-01-18T04:00:29.854Z,2.31
2019-01-18T04:02:59.653Z,2.28
2019-01-18T04:05:28.980Z,2.36
2019-01-18T04:07:58.309Z,2.38
2019-01-18T04:10:27.656Z,2.45
2019-01-18T04:12:57.053Z,2.48
2019-01-18T04:15:26.827Z,2.43
2019-01-18T04:17:56.176Z,2.47
2019-01-18T04:20:25.487Z,2.55
2019-01-18T04:22:55.084Z,2.53
2019-01-18T04:25:26.076Z,2.56
2019-01-18T04:27:55.369Z,2.52
2019-01-18T04:30:25.180Z,2.55
2019-01-18T04:32:54.535Z,2.54
2019-01-18T04:35:23.840Z,2.54
2019-01-18T04:37:53.191Z,2.61
2019-01-18T04:40:26.237Z,2.58
2019-01-18T04:42:56.283Z,2.60
2019-01-18T04:45:25.681Z,2.56
2019-01-18T04:47:54.987Z,2.43
2019-01-18T04:50:27.435Z,2.57
2019-01-18T04:52:56.745Z,1.85
2019-01-18T04:55:26.112Z,2.61
2019-01-18T04:57:55.776Z,2.57
2019-01-18T05:00:30.360Z,2.57
2019-01-18T05:02:59.696Z,2.61
2019-01-18T05:05:29.001Z,2.50
2019-01-18T05:07:58.670Z,2.68
2019-01-18T05:10:29.568Z,2.49
2019-01-18T05:12:59.180Z,2.43
2019-01-18T05:15:31.787Z,2.21
2019-01-18T05:18:01.260Z,2.08
2019-01-18T05:20:30.813Z,1.99
2019-01-18T05:23:00.181Z,1.96
2019-01-18T05:25:29.510Z,1.96
2019-01-18T05:27:58.835Z,1.98
2019-01-18T05:30:30.060Z,1.70
2019-01-18T05:32:59.395Z,1.79
2019-01-18T05:35:28.689Z,1.79
2019-01-18T05:37:58.314Z,1.71
2019-01-18T05:40:27.923Z,1.51
2019-01-18T05:42:57.663Z,1.58
2019-01-18T05:45:27.144Z,1.47
2019-01-18T05:47:56.478Z,1.49
2019-01-18T05:50:28.451Z,1.38
2019-01-18T05:52:58.634Z,1.41
2019-01-18T05:55:28.245Z,1.34
2019-01-18T05:57:57.618Z,1.33
2019-01-18T06:00:34.012Z,1.27
2019-01-18T06:03:03.370Z,1.37
2019-01-18T06:05:33.408Z,1.29
2019-01-18T06:08:02.826Z,1.16
2019-01-18T06:10:32.282Z,1.15
2019-01-18T06:13:01.935Z,1.04
2019-01-18T06:15:31.792Z,0.57
2019-01-18T06:18:01.261Z,0.97
2019-01-18T06:20:30.841Z,1.03
2019-01-18T06:23:00.173Z,1.03
2019-01-18T06:25:29.777Z,1.08
2019-01-18T06:27:59.117Z,1.00
2019-01-18T06:30:28.678Z,1.03
2019-01-18T06:32:58.285Z,1.01
2019-01-18T06:35:27.850Z,0.93
2019-01-18T06:37:57.189Z,0.99
2019-01-18T06:40:26.771Z,0.94
2019-01-18T06:42:56.339Z,1.00
2019-01-18T06:45:29.810Z,0.99
2019-01-18T06:47:59.386Z,1.07
2019-01-18T06:50:28.974Z,0.95
2019-01-18T06:52:58.558Z,0.90
2019-01-18T06:55:27.922Z,0.96
2019-01-18T06:57:57.483Z,0.95
2019-01-18T07:00:31.853Z,1.11
2019-01-18T07:03:01.191Z,1.08
2019-01-18T07:05:30.511Z,1.08
2019-01-18T07:08:00.130Z,1.09
2019-01-18T07:10:29.734Z,1.01
2019-01-18T07:12:59.053Z,0.93
2019-01-18T07:15:28.656Z,1.00
2019-01-18T07:17:58.250Z,1.04
2019-01-18T07:20:27.846Z,0.58
2019-01-18T07:22:57.436Z,1.01
2019-01-18T07:25:29.261Z,1.04
2019-01-18T07:27:58.601Z,1.11
2019-01-18T07:30:34.625Z,1.09
2019-01-18T07:33:18.667Z,0.97
2019-01-18T07:35:49.174Z,0.97
2019-01-18T07:38:18.516Z,1.01
2019-01-18T07:40:47.860Z,1.04
2019-01-18T07:43:17.164Z,1.09
2019-01-18T07:45:46.991Z,1.01
2019-01-18T07:48:16.618Z,1.09
2019-01-18T07:50:46.212Z,1.07
2019-01-18T07:53:16.416Z,1.12
2019-01-18T07:55:45.889Z,1.12
2019-01-18T07:58:15.220Z,1.08
2019-01-18T08:00:44.550Z,0.98
2019-01-18T08:03:13.899Z,0.94
2019-01-18T08:05:43.238Z,0.94
2019-01-18T08:08:12.555Z,0.91
2019-01-18T08:10:41.925Z,0.91
2019-01-18T08:13:11.299Z,0.88
2019-01-18T08:15:40.922Z,0.91
2019-01-18T08:18:10.523Z,0.90
2019-01-18T08:20:39.840Z,0.86
2019-01-18T08:23:09.473Z,0.78
2019-01-18T08:25:38.797Z,0.83
2019-01-18T08:28:08.355Z,0.90
2019-01-18T08:30:37.695Z,0.70
2019-01-18T08:33:07.071Z,0.74
2019-01-18T08:35:36.640Z,0.72
2019-01-18T08:38:05.972Z,0.68
2019-01-18T08:40:37.850Z,0.60
2019-01-18T08:43:08.859Z,0.69
2019-01-18T08:45:45.591Z,0.70
2019-01-18T08:48:15.190Z,0.74
2019-01-18T08:50:44.511Z,0.73
2019-01-18T08:53:14.117Z,0.76
2019-01-18T08:55:43.465Z,0.92
2019-01-18T08:58:12.776Z,0.90
2019-01-18T09:00:42.414Z,0.78
2019-01-18T09:03:11.691Z,0.85
2019-01-18T09:05:41.401Z,0.77
2019-01-18T09:08:11.031Z,0.73
2019-01-18T09:10:40.655Z,0.64
2019-01-18T09:13:10.244Z,0.70
2019-01-18T09:15:39.844Z,0.71
2019-01-18T09:18:09.455Z,0.59
2019-01-18T09:20:38.786Z,0.63
2019-01-18T09:23:08.132Z,0.54
2019-01-18T09:25:37.726Z,0.47
2019-01-18T09:28:07.349Z,0.56
2019-01-18T09:30:36.661Z,0.56
2019-01-18T09:33:06.759Z,0.70
2019-01-18T09:35:36.607Z,0.64
2019-01-18T09:38:08.145Z,0.64
2019-01-18T09:40:37.483Z,0.69
2019-01-18T09:43:06.828Z,0.62
2019-01-18T09:45:36.468Z,0.56
2019-01-18T09:48:06.614Z,0.50
2019-01-18T09:50:35.910Z,0.60
2019-01-18T09:53:07.763Z,0.67
2019-01-18T09:55:37.104Z,0.79
2019-01-18T09:58:06.740Z,0.81
2019-01-18T10:00:38.035Z,0.77
2019-01-18T10:03:07.615Z,0.75
2019-01-18T10:05:36.948Z,0.71
2019-01-18T10:08:06.524Z,0.64
2019-01-18T10:10:37.081Z,0.72
2019-01-18T10:13:06.403Z,0.73
2019-01-18T10:15:40.044Z,0.75
2019-01-18T10:18:09.669Z,0.80
2019-01-18T10:20:39.131Z,1.00
2019-01-18T10:23:08.768Z,1.06
2019-01-18T10:25:38.548Z,1.07
2019-01-18T10:28:08.052Z,1.18
2019-01-18T10:30:37.457Z,1.12
2019-01-18T10:33:07.245Z,1.05
2019-01-18T10:35:37.863Z,0.94
2019-01-18T10:38:07.270Z,0.70
2019-01-18T10:40:36.912Z,0.80
2019-01-18T10:43:06.730Z,0.84
2019-01-18T10:45:36.451Z,0.84
2019-01-18T10:48:05.795Z,0.95
2019-01-18T10:50:35.599Z,1.04
2019-01-18T10:53:05.320Z,1.10
2019-01-18T10:55:34.807Z,0.68
2019-01-18T10:58:04.870Z,1.24
2019-01-18T11:00:35.085Z,1.36
2019-01-18T11:03:04.553Z,1.57
2019-01-18T11:05:34.027Z,1.76
2019-01-18T11:08:03.822Z,2.03
2019-01-18T11:10:33.604Z,2.07
2019-01-18T11:13:03.004Z,1.86
2019-01-18T11:15:35.964Z,1.80
2019-01-18T11:18:03.968Z,1.43
2019-01-18T11:20:51.104Z,1.56
2019-01-18T11:23:20.522Z,1.75
2019-01-18T11:25:50.050Z,2.09
2019-01-18T11:28:19.508Z,1.62
2019-01-18T11:30:48.998Z,1.83
2019-01-18T11:33:18.455Z,2.28
2019-01-18T11:35:47.806Z,1.66
2019-01-18T11:38:17.623Z,2.42
2019-01-18T11:40:47.200Z,2.20
2019-01-18T11:43:16.622Z,2.15
2019-01-18T11:45:46.187Z,1.91
2019-01-18T11:48:16.077Z,1.96
2019-01-18T11:50:45.672Z,1.69
2019-01-18T11:53:15.354Z,1.83
2019-01-18T11:55:45.127Z,1.79
2019-01-18T11:58:14.539Z,1.51
2019-01-18T12:00:44.220Z,1.43
2019-01-18T12:03:13.545Z,1.36
2019-01-18T12:05:43.253Z,1.49
2019-01-18T12:08:12.657Z,1.68
2019-01-18T12:10:42.400Z,2.82
2019-01-18T12:13:11.999Z,3.61
2019-01-18T12:15:41.338Z,4.02
2019-01-18T12:18:10.900Z,3.78
2019-01-18T12:20:40.275Z,3.67
2019-01-18T12:23:09.906Z,2.54
2019-01-18T12:25:39.270Z,1.96
2019-01-18T12:28:08.805Z,2.43
2019-01-18T12:30:38.408Z,2.26
2019-01-18T12:33:08.139Z,2.01
2019-01-18T12:35:37.965Z,1.90
2019-01-18T12:38:07.736Z,1.87
2019-01-18T12:40:37.798Z,1.79
2019-01-18T12:43:07.127Z,1.68
2019-01-18T12:45:36.566Z,1.78
2019-01-18T12:48:06.440Z,1.81
2019-01-18T12:50:36.645Z,1.63
2019-01-18T12:53:06.540Z,1.56
2019-01-18T12:55:36.536Z,1.65
2019-01-18T12:58:06.285Z,1.60
2019-01-18T13:00:35.608Z,1.59
2019-01-18T13:03:05.433Z,1.73
2019-01-18T13:05:41.582Z,1.76
2019-01-18T13:08:11.186Z,1.73
2019-01-18T13:10:40.867Z,1.65
2019-01-18T13:13:10.324Z,1.82
2019-01-18T13:15:50.214Z,1.92
2019-01-18T13:18:19.544Z,1.89
2019-01-18T13:20:48.862Z,1.95
2019-01-18T13:23:18.221Z,1.92
2019-01-18T13:25:47.525Z,1.92
2019-01-18T13:28:17.130Z,1.76
2019-01-18T13:30:46.708Z,1.78
2019-01-18T13:33:16.043Z,1.61
2019-01-18T13:35:45.699Z,1.56
2019-01-18T13:38:15.021Z,1.78
2019-01-18T13:40:44.703Z,1.65
2019-01-18T13:43:14.374Z,1.77
2019-01-18T13:45:44.059Z,1.83
2019-01-18T13:48:13.403Z,1.69
2019-01-18T13:50:42.747Z,1.69
2019-01-18T13:53:12.140Z,1.73
2019-01-18T13:55:41.502Z,1.73
2019-01-18T13:58:10.815Z,1.88
2019-01-18T14:00:40.189Z,1.72
2019-01-18T14:03:10.100Z,1.51
2019-01-18T14:05:39.739Z,1.70
2019-01-18T14:08:09.449Z,1.14
2019-01-18T14:10:39.328Z,1.82
2019-01-18T14:13:08.702Z,1.95
2019-01-18T14:15:38.301Z,1.67
2019-01-18T14:18:08.049Z,1.74
2019-01-18T14:20:37.849Z,1.61
2019-01-18T14:23:07.687Z,1.59
2019-01-18T14:25:37.111Z,1.59
2019-01-18T14:28:07.045Z,1.54
2019-01-18T14:30:36.709Z,1.56
2019-01-18T14:33:06.166Z,1.68
2019-01-18T14:35:35.725Z,1.62
2019-01-18T14:38:05.350Z,1.38
2019-01-18T14:40:34.693Z,1.24
2019-01-18T14:43:04.055Z,1.31
2019-01-18T14:45:42.959Z,1.13
2019-01-18T14:48:13.244Z,1.14
2019-01-18T14:50:43.458Z,1.24
2019-01-18T14:53:15.627Z,1.19
2019-01-18T14:55:44.729Z,1.07
2019-01-18T14:58:14.212Z,1.07
2019-01-18T15:00:44.018Z,1.05
2019-01-18T15:03:14.745Z,0.98
2019-01-18T15:05:44.339Z,0.96
2019-01-18T15:08:13.665Z,0.94
2019-01-18T15:10:42.989Z,0.84
2019-01-18T15:13:14.416Z,0.78
2019-01-18T15:15:43.843Z,0.29
2019-01-18T15:18:13.193Z,0.69
2019-01-18T15:20:42.799Z,0.76
2019-01-18T15:23:12.117Z,0.81
2019-01-18T15:25:41.431Z,0.62
2019-01-18T15:28:11.025Z,0.71
2019-01-18T15:30:40.688Z,0.69
2019-01-18T15:33:10.056Z,0.61
2019-01-18T15:35:40.006Z,0.53
2019-01-18T15:38:09.734Z,0.56
2019-01-18T15:40:42.849Z,0.55
2019-01-18T15:43:14.207Z,0.60
2019-01-18T15:45:43.560Z,0.60
2019-01-18T15:48:12.952Z,0.42
2019-01-18T15:50:42.317Z,0.29
2019-01-18T15:53:11.903Z,0.29
2019-01-18T15:55:41.528Z,0.37
2019-01-18T15:58:11.131Z,0.26
2019-01-18T16:00:42.639Z,0.32
2019-01-18T16:03:16.071Z,0.23
2019-01-18T16:05:43.268Z,0.18
2019-01-18T16:08:12.599Z,-0.15
2019-01-18T16:10:42.233Z,0.15
2019-01-18T16:13:11.566Z,0.13
2019-01-18T16:15:54.852Z,-0.02
2019-01-18T16:18:26.070Z,-0.05
2019-01-18T16:20:55.682Z,-0.08
2019-01-18T16:23:25.308Z,-0.17
2019-01-18T16:25:54.907Z,-0.13
2019-01-18T16:28:24.330Z,-0.12
2019-01-18T16:30:54.107Z,-0.15
2019-01-18T16:33:23.807Z,-0.18
2019-01-18T16:35:53.532Z,-0.14
2019-01-18T16:38:23.523Z,-0.08
2019-01-18T16:40:53.126Z,-0.23
2019-01-18T16:43:29.996Z,-0.35
2019-01-18T16:45:59.356Z,-0.32
2019-01-18T16:48:28.680Z,-0.34
2019-01-18T16:50:58.287Z,-0.18
2019-01-18T16:53:27.949Z,-0.28
2019-01-18T16:55:57.663Z,-0.35
2019-01-18T16:58:27.017Z,-0.45
2019-01-18T17:01:00.564Z,-0.42
2019-01-18T17:03:30.843Z,-0.47
2019-01-18T17:06:00.533Z,-0.60
2019-01-18T17:08:29.901Z,-0.57
2019-01-18T17:10:59.236Z,-0.54
2019-01-18T17:13:28.956Z,-0.65
2019-01-18T17:15:58.592Z,-0.47
2019-01-18T17:18:27.982Z,-0.47
2019-01-18T17:20:57.317Z,-0.53
2019-01-18T17:23:26.936Z,-0.60
2019-01-18T17:25:56.257Z,-0.59
2019-01-18T17:28:25.861Z,-0.58
2019-01-18T17:30:55.500Z,-0.62
2019-01-18T17:33:25.116Z,-0.65
2019-01-18T17:36:02.003Z,-0.51
2019-01-18T17:39:09.135Z,-0.61
2019-01-18T17:42:12.096Z,-0.68
2019-01-18T17:45:21.058Z,-0.78
2019-01-18T17:48:17.772Z,-0.72
2019-01-18T17:51:25.276Z,-0.70
2019-01-18T17:54:11.418Z,-0.80
2019-01-18T17:57:13.984Z,-0.85
2019-01-18T18:00:31.758Z,-0.86
2019-01-18T18:03:17.655Z,-0.91
2019-01-18T18:06:20.497Z,-0.95
2019-01-18T18:09:12.506Z,-0.91
2019-01-18T18:11:58.116Z,-0.82
2019-01-18T18:14:47.155Z,-0.87
2019-01-18T18:17:27.383Z,-0.89
2019-01-18T18:20:20.260Z,-0.91
2019-01-18T18:23:22.164Z,-0.91
2019-01-18T18:26:02.066Z,-1.04
2019-01-18T18:29:15.320Z,-0.97
2019-01-18T18:32:13.575Z,-1.02
2019-01-18T18:35:10.438Z,-1.07
2019-01-18T18:38:22.139Z,-1.08
2019-01-18T18:41:23.058Z,-1.07
2019-01-18T18:44:18.647Z,-1.07
2019-01-18T18:47:28.937Z,-1.11
2019-01-18T18:50:39.054Z,-1.15
2019-01-18T18:53:30.844Z,-1.11
2019-01-18T18:56:07.637Z,-1.07
2019-01-18T18:59:26.632Z,-1.03
2019-01-18T19:02:31.967Z,-0.99
2019-01-18T19:05:18.058Z,-0.96
2019-01-18T19:08:13.194Z,-0.94
2019-01-18T19:10:56.496Z,-0.98
2019-01-18T19:14:08.369Z,-0.94
2019-01-18T19:16:48.594Z,-1.02
2019-01-18T19:19:31.496Z,-1.09
2019-01-18T19:22:20.427Z,-1.19
2019-01-18T19:25:16.911Z,-1.28
2019-01-18T19:27:57.187Z,-1.28
2019-01-18T19:30:37.208Z,-1.24
2019-01-18T19:33:26.004Z,-1.24
2019-01-18T19:36:41.055Z,-1.15
2019-01-18T19:39:27.491Z,-1.22
2019-01-18T19:42:41.270Z,-1.29
2019-01-18T19:45:21.243Z,-1.27
2019-01-18T19:48:04.433Z,-1.21
2019-01-18T19:51:05.320Z,-1.28
2019-01-18T19:53:47.958Z,-1.32
2019-01-18T19:56:34.337Z,-1.31
2019-01-18T19:59:17.564Z,-1.37
2019-01-18T20:01:54.679Z,-1.40
2019-01-18T20:05:09.470Z,-1.45
2019-01-18T20:07:58.562Z,-1.27
2019-01-18T20:10:49.053Z,-1.32
2019-01-18T20:13:51.595Z,-1.38
2019-01-18T20:16:48.188Z,-1.46
2019-01-18T20:19:44.662Z,-1.46
2019-01-18T20:22:27.645Z,-1.46
2019-01-18T20:25:04.609Z,-1.42
2019-01-18T20:27:41.607Z,-1.34
2019-01-18T20:30:33.649Z,-1.46
2019-01-18T20:33:25.717Z,-1.40
2019-01-18T20:36:08.428Z,-1.41
2019-01-18T20:39:00.502Z,-1.48
2019-01-18T20:42:11.832Z,-1.55
2019-01-18T20:45:17.026Z,-1.51
2019-01-18T20:48:26.366Z,-1.52
2019-01-18T20:51:06.469Z,-1.58
2019-01-18T20:53:43.998Z,-1.63
2019-01-18T20:56:33.131Z,-1.60
2019-01-18T20:59:22.095Z,-1.61
2019-01-18T21:02:18.634Z,-1.67
2019-01-18T21:05:11.804Z,-1.67
2019-01-18T21:07:59.432Z,-1.74
2019-01-18T21:10:36.516Z,-1.73
2019-01-18T21:13:22.511Z,-1.74
2019-01-18T21:16:02.958Z,-1.77
2019-01-18T21:18:58.355Z,-1.73
2019-01-18T21:21:53.788Z,-1.73
2019-01-18T21:24:46.060Z,-1.75
2019-01-18T21:27:44.151Z,-1.76
2019-01-18T21:30:43.533Z,-1.71
2019-01-18T21:33:49.034Z,-1.73
2019-01-18T21:36:38.039Z,-1.67
2019-01-18T21:39:37.534Z,-1.71
2019-01-18T21:42:14.697Z,-1.77
2019-01-18T21:45:00.684Z,-1.80
2019-01-18T21:48:01.946Z,-1.83
2019-01-18T21:51:11.910Z,-1.74
2019-01-18T21:54:04.323Z,-1.81
2019-01-18T21:56:50.215Z,-1.82
2019-01-18T21:59:24.569Z,-1.89
2019-01-18T22:02:13.038Z,-1.92
2019-01-18T22:04:47.562Z,-2.01
2019-01-18T22:07:33.835Z,-2.00
2019-01-18T22:10:34.816Z,-2.01
2019-01-18T22:13:29.681Z,-2.00
2019-01-18T22:16:32.417Z,-2.13
2019-01-18T22:19:25.677Z,-1.90
2019-01-18T22:22:25.273Z,-1.97
2019-01-18T22:25:42.732Z,-2.10
2019-01-18T22:28:35.982Z,-2.14
2019-01-18T22:31:16.312Z,-2.13
2019-01-18T22:34:02.481Z,-2.02
2019-01-18T22:37:12.996Z,-2.14
2019-01-18T22:39:47.536Z,-2.08
2019-01-18T22:42:24.381Z,-2.20
2019-01-18T22:45:25.643Z,-2.13
2019-01-18T22:48:14.792Z,-2.18
2019-01-18T22:51:11.545Z,-2.28
2019-01-18T22:53:48.766Z,-2.11
2019-01-18T22:56:25.769Z,-2.04
2019-01-18T22:59:08.735Z,-2.13
2019-01-18T23:02:04.109Z,-2.19
2019-01-18T23:04:55.704Z,-2.40
2019-01-18T23:08:03.262Z,-2.46
2019-01-18T23:11:01.541Z,-2.44
2019-01-18T23:13:41.421Z,-2.34
2019-01-18T23:16:35.348Z,-2.37
2019-01-18T23:19:21.697Z,-2.49
2019-01-18T23:22:04.842Z,-2.41
2019-01-18T23:24:50.856Z,-2.24
2019-01-18T23:27:56.520Z,-2.41
2019-01-18T23:30:51.371Z,-2.46
2019-01-18T23:33:40.306Z,-2.32
2019-01-18T23:36:17.242Z,-2.39
2019-01-18T23:39:20.694Z,-2.56
2019-01-18T23:42:36.552Z,-2.58
2019-01-18T23:45:46.450Z,-2.61
2019-01-18T23:48:35.339Z,-2.68
2019-01-18T23:51:42.428Z,-2.84
2019-01-18T23:54:47.886Z,-2.79
2019-01-18T23:57:27.554Z,-2.89
